Moffett Field, CA

1:17 PM PDT on May 26, 2016 (GMT -0700)
Moffett Federal Air Field | Change Station
CLOSE
Current Station
Airport
Location: Moffett NAS,
Elevation: 39 ft
Nearby Weather Stations

Elev 39 ft 37.41 °N, 122.05 °W | Updated 21 minutes ago

Clear
Clear
74 °F
Feels Like 74 °F
N
9
Wind Variable Wind from North

Today
High -- | Low -- °F
--% Chance of Precip.
Yesterday
High -- | Low -- °F
Precip. -- in
5:51 AM 8:19 PM
Waning Gibbous, 77% visible
Pressure 30.08 in
Visibility 10.0 miles
Clouds Clear
Dew Point 53 °F
Humidity 48%
Rainfall 0.00 in
Snow Depth Not available.
UV 12 out of 12
Pollen 6.20 out of 12
Ozone Good
PM2.5 Good
Flu Activity Local Activity
METAR KNUQ 261956Z 36008KT 10SM CLR 23/12 A3007 RMK AO2 SLP185 T02330117

More Conditions Fewer Conditions

Pressure 30.08 in
Visibility 10.0 miles
Clouds Clear
Dew Point 53 °F
Humidity 48%
Rainfall 0.00 in
Snow Depth Not available.
UV 12 out of 12
Pollen 6.20 out of 12
Ozone Good
PM2.5 Good
Flu Activity Local Activity
METAR KNUQ 261956Z 36008KT 10SM CLR 23/12 A3007 RMK AO2 SLP185 T02330117

More Conditions Fewer Conditions

10-Day Weather Forecast

Almanac

Astronomy

May. 26, 2016 Rise Set
Actual Time 5:51 AM PDT 8:19 PM PDT
Civil Twilight 5:21 AM PDT 8:49 PM PDT
Nautical Twilight 4:43 AM PDT 9:27 PM PDT
Astronomical Twilight 4:02 AM PDT 10:08 PM PDT
Moon No Moon Rise 10:08 AM PDT
Length of Visible Light 15h 28m
Length of Day
14h 28m
Tomorrow will be 1m 14s longer.
Waning Gibbous, 77% of the Moon is Illuminated
Today
Waning Gibbous
May 29
Last Quarter
Jun 4
New
Jun 12
First Quarter
Jun 20
Full

Today's Extremes

State Highs State Lows

Community

WunderPhotos

Upload Photos

1,913,881 photos uploaded!

Nearby

Air Quality

  Air Quality AQ Index Pollutant
Yesterday Good
PM2.5
Yesterday Good
OZONE
Current Good
PM2.5
Current Good
OZONE
Thursday Good
OZONE
Friday Good
OZONE
Saturday Good
OZONE
Sunday Good
OZONE
Monday Good
OZONE
Tuesday Good
OZONE

Snow Depth

Station Depth Elevation
Blue Lakes 6 in 8000 ft
Carson Pass 19 in 8500 ft
Forestdale Creek 22 in 8029 ft
Leavitt Lake 101 in 9400 ft
Ebbetts Pass 10 in 8700 ft

Earthquake Activity

City Distance Mag. Time & Date
East Foothills, California 15 miles 2.8 5:27 PM PDT
2016-05-25
Cayucos, California 147 miles 2.5 12:41 PM PDT
2016-05-24
Cayucos, California 147 miles 2.5 12:18 PM PDT
2016-05-24
Cayucos, California 147 miles 3.1 12:15 PM PDT
2016-05-24
Minimum magnitude displayed is 2.5.

Coastal Water Temperatures

Place Temperature
No Stations Reporting

Nearby Weather Stations